TR-0044 weather

Çukurova Airport
Tarsus, Icel Province, Turkey

Public forecast

Using degrees Celsius for public forecast. Weather courtesy of forecast.io.

METAR (pilot weather report)

Closest report is Adana Airport, 11.4 nm (21.1 km) ENE. Retrieved 2019/06/25 06:20 UTC (32 minutes ago):

LTAF 250620Z VRB03KT 9999 SCT035 29/25 Q1008 NOSIG RMK RWY23 21004KT 150V290

TAF (pilot weather forecast)

Closest forecast is Adana Airport, 11.4 nm (21.1 km) ENE. Retrieved 2019/06/25 06:00 UTC (52 minutes ago):

TAF LTAF 250440Z 2506/2606 VRB02KT 9999 SCT035 BECMG 2508/2510 21012KT BECMG 2516/2518 VRB02KT BECMG 2600/2602 4000 BR BECMG 2604/2606 9999 NSW=